Time;durP1;ratioP1;P1;durP2;ratioP2;P2;SDS_P1;SDS_P2;PMS_P1;PMS_P2;Temp;Humidity;BMP_temperature;BMP_pressure;BME280_temperature;BME280_humidity;BME280_pressure;Samples;Min_cycle;Max_cycle;Signal;HPM_P1;HPM_P2
2023/09/18 00:01:06;;;;;;;9.13;7.30;;;20.80;99.90;;;;;;5070377;28;20173;-58
2023/09/18 00:03:32;;;;;;;11.10;7.57;;;20.80;99.90;;;;;;5070850;28;20247;-58
2023/09/18 00:05:58;;;;;;;9.63;7.65;;;20.80;99.90;;;;;;5070791;28;20212;-59
2023/09/18 00:08:24;;;;;;;14.20;7.57;;;20.70;99.90;;;;;;5070728;28;20166;-59
2023/09/18 00:10:54;;;;;;;14.13;8.23;;;20.70;99.90;;;;;;5070684;28;20694;-58
2023/09/18 00:13:20;;;;;;;8.05;7.05;;;20.60;99.90;;;;;;5070639;28;20213;-58
2023/09/18 00:15:48;;;;;;;14.85;7.78;;;20.60;99.90;;;;;;5069756;28;20634;-60
2023/09/18 00:18:15;;;;;;;8.88;7.18;;;20.70;99.90;;;;;;5071394;28;20178;-60
2023/09/18 00:20:41;;;;;;;12.95;7.63;;;20.70;99.90;;;;;;5070910;28;20166;-60
2023/09/18 00:23:07;;;;;;;11.20;7.75;;;20.70;99.90;;;;;;5074184;28;21175;-60
2023/09/18 00:25:33;;;;;;;10.88;7.78;;;20.70;99.90;;;;;;5074413;28;20214;-60
2023/09/18 00:27:59;;;;;;;9.95;7.88;;;20.60;99.90;;;;;;5074077;28;20190;-60
2023/09/18 00:30:24;;;;;;;10.68;7.72;;;20.60;99.90;;;;;;5074014;28;20165;-60
2023/09/18 00:32:50;;;;;;;9.40;7.95;;;20.70;99.90;;;;;;5073976;28;20216;-60
2023/09/18 00:35:16;;;;;;;12.68;7.88;;;20.60;99.90;;;;;;5074422;28;20224;-60
2023/09/18 00:37:43;;;;;;;12.77;8.15;;;20.60;99.90;;;;;;5073912;28;20173;-60
2023/09/18 00:40:09;;;;;;;14.63;8.23;;;20.60;99.90;;;;;;5074112;28;20257;-60
2023/09/18 00:42:34;;;;;;;10.02;8.02;;;20.50;99.90;;;;;;5073801;28;20170;-60
2023/09/18 00:45:00;;;;;;;13.30;8.98;;;20.50;99.90;;;;;;5073033;28;20204;-60
2023/09/18 00:47:26;;;;;;;11.68;8.27;;;20.60;99.90;;;;;;5073722;28;20170;-59
2023/09/18 00:49:52;;;;;;;11.63;7.97;;;20.50;99.90;;;;;;5073851;28;20615;-60
2023/09/18 00:52:21;;;;;;;9.43;7.70;;;20.50;99.90;;;;;;5073893;28;20201;-59
2023/09/18 00:54:48;;;;;;;10.25;8.45;;;20.50;99.90;;;;;;5073554;28;20185;-58
2023/09/18 00:57:14;;;;;;;12.52;7.20;;;20.40;99.90;;;;;;5074106;28;20212;-58
2023/09/18 00:59:40;;;;;;;8.50;7.40;;;20.50;99.90;;;;;;5073520;28;20538;-59
2023/09/18 01:02:05;;;;;;;12.88;8.10;;;20.50;99.90;;;;;;5073477;28;20646;-58
2023/09/18 01:04:33;;;;;;;8.60;7.35;;;20.40;99.90;;;;;;5073443;28;20185;-60
2023/09/18 01:07:03;;;;;;;11.18;7.65;;;20.40;99.90;;;;;;5073377;28;20239;-59
2023/09/18 01:09:30;;;;;;;10.60;7.25;;;20.40;99.90;;;;;;5072427;28;20181;-60
2023/09/18 01:12:06;;;;;;;10.70;8.18;;;20.40;99.90;;;;;;5071924;28;20165;-59
2023/09/18 01:14:39;;;;;;;11.90;8.23;;;20.50;99.90;;;;;;5073251;28;20523;-60
2023/09/18 01:17:07;;;;;;;19.00;7.97;;;20.30;99.90;;;;;;5073158;28;20173;-60
2023/09/18 01:19:46;;;;;;;10.32;7.82;;;20.40;99.90;;;;;;5073349;28;20174;-60
2023/09/18 01:22:17;;;;;;;11.18;8.45;;;20.30;99.90;;;;;;5073395;28;20255;-60
2023/09/18 01:24:44;;;;;;;12.50;8.52;;;20.30;99.90;;;;;;5073342;28;20174;-59
2023/09/18 01:27:14;;;;;;;10.25;7.82;;;20.40;99.90;;;;;;5072935;28;20170;-59
2023/09/18 01:29:41;;;;;;;10.85;7.75;;;20.30;99.90;;;;;;5072887;28;20180;-60
2023/09/18 01:32:06;;;;;;;10.85;8.27;;;20.30;99.90;;;;;;5073029;28;20162;-59
2023/09/18 01:34:49;;;;;;;13.75;8.70;;;20.30;99.90;;;;;;5072098;28;20635;-59
2023/09/18 01:37:20;;;;;;;15.52;8.35;;;20.30;99.90;;;;;;5073191;28;20253;-59
2023/09/18 01:39:48;;;;;;;9.93;8.30;;;20.30;99.90;;;;;;5073098;28;20670;-59
2023/09/18 01:42:13;;;;;;;12.68;8.52;;;20.20;99.90;;;;;;5073082;28;20193;-59
2023/09/18 01:44:39;;;;;;;12.25;8.98;;;20.30;99.90;;;;;;5072612;28;20201;-59
2023/09/18 01:47:08;;;;;;;18.10;8.50;;;20.20;99.90;;;;;;5072332;28;20247;-60
2023/09/18 01:49:40;;;;;;;15.80;8.85;;;20.30;99.90;;;;;;5072478;28;20216;-60
2023/09/18 01:52:07;;;;;;;14.73;8.82;;;20.30;99.90;;;;;;5072389;28;20158;-59
2023/09/18 01:54:34;;;;;;;14.85;8.85;;;20.30;99.90;;;;;;5072402;28;20182;-59
2023/09/18 01:57:00;;;;;;;19.27;9.50;;;20.30;99.90;;;;;;5072363;28;20162;-60
2023/09/18 01:59:26;;;;;;;14.02;8.70;;;20.30;99.90;;;;;;5072346;28;20279;-59
2023/09/18 02:01:53;;;;;;;15.82;8.82;;;20.30;99.90;;;;;;5072240;28;20625;-57
2023/09/18 02:04:19;;;;;;;16.05;8.70;;;20.40;99.90;;;;;;5072576;28;20170;-57
2023/09/18 02:06:46;;;;;;;11.30;8.30;;;20.30;99.90;;;;;;5072625;28;20174;-57
2023/09/18 02:09:12;;;;;;;16.98;8.90;;;20.30;99.90;;;;;;5072883;28;20178;-57
2023/09/18 02:11:39;;;;;;;14.15;8.90;;;20.30;99.90;;;;;;5072386;28;20228;-58
2023/09/18 02:14:05;;;;;;;13.18;8.10;;;20.40;99.90;;;;;;5072257;28;20225;-59
2023/09/18 02:16:35;;;;;;;11.40;8.15;;;20.40;99.90;;;;;;5072005;28;20176;-58
2023/09/18 02:19:04;;;;;;;13.80;7.95;;;20.40;99.90;;;;;;5071949;28;20216;-59
2023/09/18 02:21:30;;;;;;;14.02;8.73;;;;;;;;;;5070657;28;20173;-59
2023/09/18 02:23:56;;;;;;;14.10;8.52;;;20.30;99.90;;;;;;5071855;28;20169;-59
2023/09/18 02:26:23;;;;;;;10.65;8.00;;;20.40;99.90;;;;;;5071783;28;20166;-59
2023/09/18 02:28:49;;;;;;;10.40;7.65;;;20.30;99.90;;;;;;5070478;28;20170;-59
2023/09/18 02:31:16;;;;;;;12.20;8.10;;;20.40;99.90;;;;;;5072157;28;20197;-59
2023/09/18 02:33:42;;;;;;;12.10;7.43;;;20.40;99.90;;;;;;5072132;28;20202;-58
2023/09/18 02:36:08;;;;;;;11.38;7.68;;;20.40;99.90;;;;;;5070447;28;20166;-59
2023/09/18 02:38:34;;;;;;;12.40;6.53;;;;;;;;;;5071699;28;20177;-58
2023/09/18 02:41:00;;;;;;;9.07;5.47;;;20.40;99.90;;;;;;5071623;28;20275;-59
2023/09/18 02:43:26;;;;;;;12.60;6.05;;;20.40;99.90;;;;;;5070486;28;20279;-59
2023/09/18 02:45:51;;;;;;;10.55;6.32;;;20.50;99.90;;;;;;5069411;28;20351;-59
2023/09/18 02:48:17;;;;;;;8.30;5.57;;;20.60;99.90;;;;;;5070248;28;20298;-58
2023/09/18 02:50:44;;;;;;;12.85;6.60;;;20.50;99.90;;;;;;5070642;28;20170;-59
2023/09/18 02:53:25;;;;;;;9.85;5.22;;;20.60;99.90;;;;;;5071377;28;20198;-58
2023/09/18 02:55:52;;;;;;;9.65;5.22;;;20.60;99.90;;;;;;5071721;28;20184;-58
2023/09/18 02:58:22;;;;;;;8.65;5.28;;;20.60;99.90;;;;;;5071366;28;20178;-59
2023/09/18 03:00:49;;;;;;;10.75;5.65;;;20.60;99.90;;;;;;5071654;28;20174;-59
2023/09/18 03:03:16;;;;;;;10.65;5.35;;;20.60;99.90;;;;;;5072033;28;20166;-60
2023/09/18 03:05:42;;;;;;;12.75;5.38;;;20.60;99.90;;;;;;5071750;28;20174;-59
2023/09/18 03:08:09;;;;;;;9.90;4.50;;;20.60;99.90;;;;;;5071302;28;20257;-59
2023/09/18 03:10:36;;;;;;;7.88;5.18;;;20.60;99.90;;;;;;5071210;28;20258;-59
2023/09/18 03:13:02;;;;;;;11.38;4.38;;;20.60;99.90;;;;;;5071157;28;20228;-60
2023/09/18 03:15:28;;;;;;;11.90;4.68;;;20.80;99.90;;;;;;5071195;28;20166;-59
2023/09/18 03:17:54;;;;;;;10.63;4.80;;;20.90;99.90;;;;;;5069985;28;20165;-59
2023/09/18 03:20:23;;;;;;;11.02;4.88;;;20.80;99.90;;;;;;5071303;28;20211;-59
2023/09/18 03:22:50;;;;;;;9.90;4.85;;;20.90;99.90;;;;;;5071184;28;20597;-59
2023/09/18 03:25:16;;;;;;;9.73;4.60;;;20.80;99.90;;;;;;5071577;28;20158;-59
2023/09/18 03:27:41;;;;;;;10.20;4.97;;;20.80;99.90;;;;;;5071060;28;20684;-60
2023/09/18 03:30:07;;;;;;;10.43;5.15;;;20.80;99.90;;;;;;5071119;28;20181;-60
2023/09/18 03:32:33;;;;;;;13.50;5.97;;;20.70;99.90;;;;;;5071134;28;20198;-59
2023/09/18 03:34:58;;;;;;;10.65;5.28;;;20.60;99.90;;;;;;5071012;28;20215;-60
2023/09/18 03:37:24;;;;;;;10.88;5.35;;;20.60;99.90;;;;;;5069757;28;20170;-59
2023/09/18 03:39:50;;;;;;;10.30;4.72;;;20.50;99.90;;;;;;5071048;28;20244;-58
2023/09/18 03:42:15;;;;;;;8.75;4.43;;;20.60;99.90;;;;;;5071725;28;20212;-59
2023/09/18 03:44:41;;;;;;;8.07;4.30;;;20.60;99.90;;;;;;5071010;28;20578;-59
2023/09/18 03:47:06;;;;;;;11.40;4.90;;;20.50;99.90;;;;;;5070749;28;20609;-59
2023/09/18 03:49:32;;;;;;;7.13;4.35;;;;;;;;;;5070884;28;20631;-59
2023/09/18 03:51:58;;;;;;;8.25;4.82;;;20.40;99.90;;;;;;5070852;28;20620;-59
2023/09/18 03:54:23;;;;;;;9.15;4.32;;;20.50;99.90;;;;;;5070765;28;20197;-59
2023/09/18 03:56:49;;;;;;;10.15;4.15;;;20.60;99.90;;;;;;5072409;28;20188;-59
2023/09/18 03:59:15;;;;;;;14.27;5.60;;;;;;;;;;5075094;28;20170;-58
2023/09/18 04:01:40;;;;;;;5.85;3.72;;;20.40;99.90;;;;;;5074570;28;20196;-59
2023/09/18 04:04:06;;;;;;;9.50;4.68;;;20.40;99.90;;;;;;5074521;28;20169;-59
2023/09/18 04:06:42;;;;;;;14.70;6.63;;;20.30;99.90;;;;;;5074457;28;20193;-59
2023/09/18 04:09:08;;;;;;;9.18;4.20;;;20.40;99.90;;;;;;5074487;28;20208;-58
2023/09/18 04:11:34;;;;;;;12.88;4.68;;;20.30;99.90;;;;;;5074316;28;20178;-59
2023/09/18 04:14:00;;;;;;;12.23;6.07;;;20.30;99.90;;;;;;5074513;28;20248;-60
2023/09/18 04:16:27;;;;;;;9.15;4.95;;;20.30;99.90;;;;;;5074571;28;20212;-59
2023/09/18 04:18:53;;;;;;;10.75;4.88;;;20.30;99.90;;;;;;5074492;28;20226;-59
2023/09/18 04:21:21;;;;;;;9.25;4.65;;;20.20;99.90;;;;;;5073875;28;20162;-59
2023/09/18 04:23:47;;;;;;;11.07;4.68;;;20.40;99.90;;;;;;5074248;28;20545;-59
2023/09/18 04:26:15;;;;;;;9.32;4.38;;;20.30;99.90;;;;;;5074440;28;20170;-60
2023/09/18 04:28:41;;;;;;;9.38;4.93;;;20.20;99.90;;;;;;5073924;28;20181;-58
2023/09/18 04:31:07;;;;;;;9.80;5.03;;;20.20;99.90;;;;;;5072793;28;20165;-60
2023/09/18 04:33:33;;;;;;;7.18;4.15;;;20.20;99.90;;;;;;5073899;28;20208;-59
2023/09/18 04:35:58;;;;;;;12.60;4.90;;;20.20;99.90;;;;;;5073920;28;20565;-59
2023/09/18 04:38:24;;;;;;;7.70;4.78;;;20.10;99.90;;;;;;5073577;28;20437;-58
2023/09/18 04:40:49;;;;;;;13.15;4.75;;;20.10;99.90;;;;;;5073680;28;20615;-58
2023/09/18 04:43:15;;;;;;;9.90;4.78;;;20.10;99.90;;;;;;5074394;28;20520;-57
2023/09/18 04:45:42;;;;;;;9.35;4.30;;;;;;;;;;5072522;28;20222;-57
2023/09/18 04:48:08;;;;;;;9.48;4.30;;;20.00;99.90;;;;;;5073734;28;20183;-57
2023/09/18 04:50:34;;;;;;;10.73;4.55;;;20.00;99.90;;;;;;5073237;28;20257;-57
2023/09/18 04:52:59;;;;;;;10.82;4.38;;;20.00;99.90;;;;;;5073792;28;20236;-58
2023/09/18 04:55:25;;;;;;;7.78;4.03;;;20.00;99.90;;;;;;5073600;28;20174;-57
2023/09/18 04:57:50;;;;;;;12.70;3.90;;;20.00;99.90;;;;;;5073564;28;20651;-57
2023/09/18 05:00:16;;;;;;;14.50;4.40;;;20.00;99.90;;;;;;5073533;28;20631;-57
2023/09/18 05:02:42;;;;;;;10.95;4.05;;;20.00;99.90;;;;;;5072539;28;20253;-58
2023/09/18 05:05:11;;;;;;;7.80;4.25;;;20.00;99.90;;;;;;5073440;28;20177;-59
2023/09/18 05:07:37;;;;;;;9.73;3.67;;;20.10;99.90;;;;;;5071248;28;20228;-58
2023/09/18 05:10:04;;;;;;;10.80;4.28;;;20.10;99.90;;;;;;5072839;28;20688;-59
2023/09/18 05:12:30;;;;;;;11.00;4.65;;;20.10;99.90;;;;;;5073170;28;20189;-59
2023/09/18 05:14:58;;;;;;;9.45;3.90;;;20.10;99.90;;;;;;5073518;28;20182;-59
2023/09/18 05:17:42;;;;;;;11.85;4.00;;;20.10;99.90;;;;;;5073188;28;20237;-58
2023/09/18 05:20:11;;;;;;;12.02;5.70;;;20.00;99.90;;;;;;5073366;28;20186;-58
2023/09/18 05:22:37;;;;;;;9.80;3.60;;;20.00;99.90;;;;;;5073299;28;20174;-58
2023/09/18 05:25:04;;;;;;;6.20;3.40;;;20.10;99.90;;;;;;5072990;28;20235;-59
2023/09/18 05:27:29;;;;;;;6.88;3.90;;;20.00;99.90;;;;;;5073079;28;20299;-58
2023/09/18 05:29:55;;;;;;;8.38;3.60;;;20.00;99.90;;;;;;5073029;28;20186;-59
2023/09/18 05:32:21;;;;;;;8.93;3.75;;;20.00;99.90;;;;;;5072842;28;20529;-60
2023/09/18 05:34:46;;;;;;;4.93;3.03;;;19.90;99.90;;;;;;5072640;28;20557;-58
2023/09/18 05:37:12;;;;;;;7.85;2.63;;;20.00;99.90;;;;;;5073250;28;20168;-60
2023/09/18 05:39:37;;;;;;;8.23;3.83;;;20.10;99.90;;;;;;5072707;28;20256;-61
2023/09/18 05:42:03;;;;;;;7.80;3.45;;;20.10;99.90;;;;;;5072652;28;20161;-60
2023/09/18 05:44:28;;;;;;;9.48;3.33;;;20.10;99.90;;;;;;5072922;28;20165;-59
2023/09/18 05:46:54;;;;;;;10.75;3.28;;;20.20;99.90;;;;;;5072465;28;20301;-60
2023/09/18 05:49:19;;;;;;;9.98;3.15;;;20.20;99.90;;;;;;5072504;28;20630;-60
2023/09/18 05:51:47;;;;;;;5.15;2.65;;;20.20;99.90;;;;;;5073018;28;20642;-57
2023/09/18 05:54:12;;;;;;;7.78;3.10;;;20.20;99.90;;;;;;5073091;28;20613;-57
2023/09/18 05:56:38;;;;;;;8.00;3.13;;;20.20;99.90;;;;;;5072403;28;20241;-58
2023/09/18 05:59:03;;;;;;;7.45;2.95;;;20.20;99.90;;;;;;5072631;28;20639;-60
2023/09/18 06:01:29;;;;;;;6.10;2.63;;;20.10;99.90;;;;;;5072357;28;20158;-58
2023/09/18 06:03:55;;;;;;;4.40;2.20;;;20.10;99.90;;;;;;5072200;28;20545;-58
2023/09/18 06:06:20;;;;;;;9.80;2.60;;;20.10;99.90;;;;;;5072162;28;20161;-57
2023/09/18 06:08:46;;;;;;;6.22;2.90;;;20.20;99.90;;;;;;5072180;28;20166;-58
2023/09/18 06:11:12;;;;;;;7.63;2.38;;;20.20;99.90;;;;;;5072765;28;20174;-58
2023/09/18 06:13:38;;;;;;;9.57;2.95;;;20.20;99.90;;;;;;5070760;28;20228;-58
2023/09/18 06:16:07;;;;;;;7.25;2.75;;;20.20;99.90;;;;;;5071075;28;20173;-58
2023/09/18 06:18:33;;;;;;;6.43;2.53;;;20.20;99.90;;;;;;5071981;28;20189;-58
2023/09/18 06:20:59;;;;;;;7.40;2.60;;;20.30;99.90;;;;;;5071716;28;20205;-58
2023/09/18 06:23:24;;;;;;;3.03;2.30;;;20.20;99.90;;;;;;5072127;28;20178;-58
2023/09/18 06:25:56;;;;;;;4.35;2.80;;;;;;;;;;5071932;28;20173;-58
2023/09/18 06:28:22;;;;;;;7.93;2.85;;;20.30;99.90;;;;;;5071847;28;20162;-58
2023/09/18 06:30:48;;;;;;;4.88;2.30;;;20.30;99.90;;;;;;5071785;28;20162;-59
2023/09/18 06:33:13;;;;;;;6.60;2.33;;;20.30;99.90;;;;;;5072144;28;20685;-60
2023/09/18 06:35:39;;;;;;;6.05;2.30;;;20.30;99.90;;;;;;5071960;28;20645;-60
2023/09/18 06:38:06;;;;;;;7.57;3.15;;;20.30;99.90;;;;;;5072026;28;21177;-58
2023/09/18 06:40:32;;;;;;;4.70;2.08;;;20.40;99.90;;;;;;5071623;28;20682;-59
2023/09/18 06:43:00;;;;;;;8.15;2.75;;;20.40;99.90;;;;;;5071599;28;20178;-58
2023/09/18 06:45:26;;;;;;;6.07;2.10;;;20.50;99.90;;;;;;5071429;28;20569;-57
2023/09/18 06:47:52;;;;;;;5.07;3.00;;;20.50;99.90;;;;;;5071549;28;20257;-59
2023/09/18 06:50:18;;;;;;;8.35;2.83;;;20.50;99.90;;;;;;5071786;28;20244;-58
2023/09/18 06:52:44;;;;;;;4.90;2.63;;;20.60;99.90;;;;;;5071955;28;20671;-57
2023/09/18 06:55:10;;;;;;;4.65;2.97;;;20.70;99.90;;;;;;5071471;28;20590;-57
2023/09/18 06:57:35;;;;;;;6.40;3.00;;;20.80;99.90;;;;;;5071338;28;20542;-58
2023/09/18 07:00:01;;;;;;;7.40;2.78;;;20.90;99.90;;;;;;5071357;28;20255;-57
2023/09/18 07:02:27;;;;;;;8.93;2.90;;;20.90;99.90;;;;;;5070135;28;20173;-59
2023/09/18 07:04:52;;;;;;;10.20;3.15;;;20.90;99.90;;;;;;5071597;28;20191;-59
2023/09/18 07:07:24;;;;;;;8.73;3.03;;;20.90;99.90;;;;;;5071342;28;20564;-58
2023/09/18 07:09:50;;;;;;;7.00;2.83;;;21.00;99.90;;;;;;5070004;28;20173;-59
2023/09/18 07:12:19;;;;;;;7.25;3.47;;;21.00;99.90;;;;;;5071385;28;20173;-57
2023/09/18 07:14:45;;;;;;;4.47;3.33;;;21.00;99.90;;;;;;5071850;28;20197;-58
2023/09/18 07:17:11;;;;;;;7.35;3.20;;;20.90;99.90;;;;;;5071827;28;20217;-57
2023/09/18 07:19:36;;;;;;;6.13;1.88;;;21.00;99.90;;;;;;5071448;28;20655;-58
2023/09/18 07:22:02;;;;;;;6.15;2.42;;;21.10;99.90;;;;;;5071265;28;20515;-57
2023/09/18 07:24:28;;;;;;;5.97;2.17;;;21.10;99.90;;;;;;5071296;28;20170;-57
2023/09/18 07:26:54;;;;;;;6.28;2.33;;;21.10;99.90;;;;;;5071357;28;20176;-57
2023/09/18 07:29:20;;;;;;;5.05;1.75;;;21.10;99.90;;;;;;5071426;28;20166;-57
2023/09/18 07:31:46;;;;;;;4.95;1.70;;;21.10;99.90;;;;;;5072704;28;20257;-58
2023/09/18 07:34:13;;;;;;;6.07;1.98;;;21.10;99.90;;;;;;5075504;28;20198;-57
2023/09/18 07:36:39;;;;;;;4.30;1.80;;;21.20;99.90;;;;;;5075055;28;20174;-57
2023/09/18 07:39:05;;;;;;;4.45;2.03;;;21.20;99.90;;;;;;5075028;28;20234;-57
2023/09/18 07:41:31;;;;;;;2.80;1.65;;;21.20;99.90;;;;;;5075233;28;20158;-58
2023/09/18 07:43:58;;;;;;;4.40;1.75;;;21.20;99.90;;;;;;5074890;28;20181;-56
2023/09/18 07:46:24;;;;;;;5.13;2.60;;;21.20;99.90;;;;;;5074801;28;20209;-57
2023/09/18 07:48:49;;;;;;;5.53;1.90;;;21.30;99.90;;;;;;5074878;28;20662;-57
2023/09/18 07:51:16;;;;;;;3.97;2.03;;;;;;;;;;5075142;28;20166;-56
2023/09/18 07:53:42;;;;;;;4.95;2.20;;;21.20;99.90;;;;;;5075135;28;20224;-58
2023/09/18 07:56:07;;;;;;;3.80;2.05;;;21.20;99.90;;;;;;5074745;28;20628;-61
2023/09/18 07:58:33;;;;;;;2.22;1.60;;;21.20;99.90;;;;;;5074615;28;20174;-58
2023/09/18 08:00:59;;;;;;;6.63;2.83;;;21.20;99.90;;;;;;5074651;28;20177;-59
2023/09/18 08:03:28;;;;;;;3.47;1.90;;;21.20;99.90;;;;;;5074584;28;20169;-57
2023/09/18 08:05:54;;;;;;;4.45;1.50;;;21.20;99.90;;;;;;5074814;28;20158;-59
2023/09/18 08:08:20;;;;;;;4.13;1.45;;;21.30;99.90;;;;;;5074703;28;20530;-59
2023/09/18 08:10:50;;;;;;;4.78;1.65;;;21.30;99.90;;;;;;5073265;28;20173;-59
2023/09/18 08:13:16;;;;;;;5.13;1.50;;;21.30;99.90;;;;;;5074259;28;20205;-57
2023/09/18 08:15:42;;;;;;;4.75;1.80;;;21.30;99.90;;;;;;5074693;28;20205;-59
2023/09/18 08:18:10;;;;;;;4.43;2.10;;;21.30;99.90;;;;;;5074292;28;20631;-59
2023/09/18 08:20:37;;;;;;;3.17;1.90;;;;;;;;;;5074417;28;20166;-59
2023/09/18 08:23:05;;;;;;;6.25;2.55;;;21.40;99.90;;;;;;5074198;28;20635;-59
2023/09/18 08:25:31;;;;;;;4.07;2.00;;;21.50;99.90;;;;;;5074178;28;20214;-59
2023/09/18 08:27:56;;;;;;;4.70;1.60;;;21.50;99.90;;;;;;5074179;28;20538;-58
2023/09/18 08:30:22;;;;;;;4.32;2.10;;;21.40;99.90;;;;;;5074058;28;20158;-59
2023/09/18 08:32:48;;;;;;;3.28;1.80;;;;;;;;;;5074167;28;20204;-57
2023/09/18 08:35:14;;;;;;;4.05;2.10;;;;;;;;;;5074079;28;20249;-59
2023/09/18 08:37:41;;;;;;;2.05;1.58;;;21.40;99.90;;;;;;5073515;28;20254;-57
2023/09/18 08:40:09;;;;;;;2.92;1.65;;;21.50;99.90;;;;;;5072289;28;20185;-58
2023/09/18 08:42:37;;;;;;;4.32;1.70;;;21.50;99.90;;;;;;5073592;28;20176;-57
2023/09/18 08:45:07;;;;;;;3.67;2.05;;;21.60;99.90;;;;;;5073654;28;20166;-58
2023/09/18 08:47:33;;;;;;;3.53;2.08;;;21.70;99.90;;;;;;5073588;28;20178;-57
2023/09/18 08:50:01;;;;;;;5.75;2.70;;;21.80;99.90;;;;;;5073464;28;20170;-58
2023/09/18 08:52:27;;;;;;;4.90;2.60;;;21.80;99.90;;;;;;5073607;28;20623;-59
2023/09/18 08:54:55;;;;;;;6.53;2.22;;;21.90;99.90;;;;;;5073671;28;20611;-57
2023/09/18 08:57:21;;;;;;;5.45;2.60;;;21.90;99.90;;;;;;5073898;28;20174;-58
2023/09/18 08:59:50;;;;;;;4.20;2.10;;;22.00;99.90;;;;;;5073549;28;20169;-56
2023/09/18 09:02:16;;;;;;;4.78;2.10;;;22.10;99.90;;;;;;5073438;28;20173;-56
2023/09/18 09:04:41;;;;;;;5.35;1.73;;;22.20;99.90;;;;;;5074016;28;20174;-57
2023/09/18 09:07:08;;;;;;;3.67;1.50;;;22.30;99.90;;;;;;5073457;28;20165;-57
2023/09/18 09:09:35;;;;;;;2.97;1.58;;;22.20;99.90;;;;;;5073481;28;20170;-56
2023/09/18 09:12:00;;;;;;;2.78;1.50;;;22.30;99.90;;;;;;5073301;28;20162;-56
2023/09/18 09:14:28;;;;;;;3.35;1.60;;;22.30;99.90;;;;;;5073163;28;20287;-56
2023/09/18 09:16:56;;;;;;;4.32;1.55;;;22.30;99.90;;;;;;5072973;28;20239;-57
2023/09/18 09:19:36;;;;;;;3.97;2.28;;;22.40;99.90;;;;;;5073413;28;20178;-59
2023/09/18 09:22:02;;;;;;;1.67;1.42;;;22.40;99.90;;;;;;5073312;28;20170;-59
2023/09/18 09:24:39;;;;;;;6.55;2.15;;;22.50;99.90;;;;;;5073128;28;20523;-59
2023/09/18 09:27:05;;;;;;;4.53;2.03;;;22.60;99.90;;;;;;5073292;28;20169;-59
2023/09/18 09:29:31;;;;;;;6.20;2.63;;;22.70;99.90;;;;;;5073224;28;20464;-59
2023/09/18 09:32:11;;;;;;;10.05;2.78;;;22.70;99.90;;;;;;5072962;28;20169;-60
2023/09/18 09:34:37;;;;;;;5.03;2.67;;;22.80;99.90;;;;;;5072795;28;20712;-59
2023/09/18 09:37:04;;;;;;;7.70;3.22;;;22.80;99.90;;;;;;5072709;28;20162;-59
2023/09/18 09:39:30;;;;;;;5.47;2.72;;;22.70;99.90;;;;;;5073027;28;20223;-59
2023/09/18 09:42:00;;;;;;;4.88;2.70;;;22.90;99.90;;;;;;5072691;28;20537;-59
2023/09/18 09:44:25;;;;;;;5.65;2.65;;;23.00;99.90;;;;;;5071453;28;20173;-59
2023/09/18 09:46:51;;;;;;;4.15;2.30;;;22.90;99.90;;;;;;5072442;28;20263;-58
2023/09/18 09:49:19;;;;;;;5.50;2.88;;;23.00;99.90;;;;;;5072528;28;20173;-59
2023/09/18 09:51:45;;;;;;;5.68;2.47;;;;;;;;;;5072652;28;20173;-58
2023/09/18 09:54:12;;;;;;;4.95;2.53;;;23.10;99.90;;;;;;5072545;28;20220;-59
2023/09/18 09:56:46;;;;;;;4.53;2.58;;;23.30;99.90;;;;;;5072308;28;20203;-60
2023/09/18 09:59:13;;;;;;;8.45;2.58;;;23.10;99.90;;;;;;5072843;28;20177;-59
2023/09/18 10:01:40;;;;;;;3.72;2.30;;;23.20;99.90;;;;;;5072264;28;20223;-58
2023/09/18 10:04:12;;;;;;;5.82;3.00;;;23.20;99.90;;;;;;5071862;28;20188;-59
2023/09/18 10:06:43;;;;;;;6.53;2.72;;;23.20;99.90;;;;;;5072167;28;20195;-57
2023/09/18 10:09:11;;;;;;;4.72;2.70;;;23.20;99.90;;;;;;5072463;28;20172;-57
2023/09/18 10:11:52;;;;;;;5.57;2.20;;;23.40;99.90;;;;;;5072099;28;20203;-57
2023/09/18 10:14:29;;;;;;;4.20;2.42;;;23.60;99.90;;;;;;5071783;28;20208;-59
2023/09/18 10:16:56;;;;;;;5.85;2.58;;;23.80;99.90;;;;;;5071773;28;20173;-59
2023/09/18 10:19:28;;;;;;;7.38;2.47;;;23.90;99.90;;;;;;5072039;28;20165;-61
2023/09/18 10:22:06;;;;;;;5.80;2.22;;;23.90;99.90;;;;;;5072177;28;20176;-60
2023/09/18 10:24:40;;;;;;;3.72;2.00;;;24.00;99.90;;;;;;5072096;28;20166;-60
2023/09/18 10:27:09;;;;;;;6.13;2.33;;;;;;;;;;5071772;28;20207;-60
2023/09/18 10:29:36;;;;;;;4.97;2.50;;;24.10;99.90;;;;;;5070588;28;20711;-60
2023/09/18 10:32:09;;;;;;;5.05;2.55;;;24.30;99.90;;;;;;5072004;28;20170;-60
2023/09/18 10:34:36;;;;;;;4.22;1.98;;;24.20;99.90;;;;;;5071679;28;20205;-59
2023/09/18 10:37:07;;;;;;;7.25;2.85;;;24.30;99.90;;;;;;5071927;28;20173;-60
2023/09/18 10:39:36;;;;;;;6.30;2.63;;;24.40;99.90;;;;;;5071624;28;20245;-60
2023/09/18 10:42:03;;;;;;;7.32;3.08;;;24.60;99.90;;;;;;5071658;28;20157;-62
2023/09/18 10:44:31;;;;;;;4.55;2.45;;;24.40;99.90;;;;;;5071933;28;20196;-61
2023/09/18 10:46:58;;;;;;;2.97;2.10;;;24.60;99.90;;;;;;5071551;28;20263;-61
2023/09/18 10:49:24;;;;;;;2.65;2.00;;;24.50;99.90;;;;;;5071698;28;20170;-61
2023/09/18 10:51:54;;;;;;;7.38;2.20;;;24.60;99.90;;;;;;5071599;28;20161;-60
2023/09/18 10:54:24;;;;;;;8.27;2.35;;;24.70;99.90;;;;;;5071326;28;20224;-61
2023/09/18 10:56:51;;;;;;;3.55;1.92;;;24.60;99.90;;;;;;5071538;28;20170;-61
2023/09/18 10:59:17;;;;;;;6.45;2.83;;;24.80;99.90;;;;;;5071314;28;20649;-61
2023/09/18 11:01:44;;;;;;;4.47;2.10;;;24.90;99.90;;;;;;5071815;28;20165;-62
2023/09/18 11:04:10;;;;;;;4.90;2.00;;;24.90;99.90;;;;;;5071729;28;20566;-61
2023/09/18 11:06:54;;;;;;;5.05;2.65;;;25.00;99.90;;;;;;5070428;28;20172;-61
2023/09/18 11:09:28;;;;;;;5.93;2.25;;;25.00;99.90;;;;;;5071358;28;20180;-60
2023/09/18 11:12:04;;;;;;;5.00;1.80;;;25.00;99.90;;;;;;5071329;28;20162;-60
2023/09/18 11:14:56;;;;;;;2.72;1.70;;;25.10;99.90;;;;;;5071203;28;20204;-59
2023/09/18 11:17:40;;;;;;;5.00;2.60;;;24.90;99.90;;;;;;5071544;28;20254;-60
2023/09/18 11:20:25;;;;;;;3.25;1.92;;;24.60;99.90;;;;;;5071285;28;20169;-57
2023/09/18 11:23:09;;;;;;;3.40;2.10;;;24.40;99.90;;;;;;5071467;28;20176;-60
2023/09/18 11:25:40;;;;;;;3.90;1.90;;;24.50;99.90;;;;;;5070871;28;20625;-57
2023/09/18 11:28:07;;;;;;;3.30;1.70;;;24.80;99.90;;;;;;5070181;28;20179;-57
2023/09/18 11:30:35;;;;;;;3.75;2.08;;;25.30;99.90;;;;;;5071163;28;20169;-58
2023/09/18 11:33:03;;;;;;;2.78;1.75;;;25.50;99.90;;;;;;5070795;28;20208;-60
2023/09/18 11:35:29;;;;;;;2.30;1.60;;;25.30;99.90;;;;;;5071647;28;20205;-59
2023/09/18 11:38:10;;;;;;;3.58;1.52;;;25.30;99.90;;;;;;5071347;28;20200;-59
2023/09/18 11:40:41;;;;;;;7.80;2.17;;;25.50;99.90;;;;;;5070956;28;20529;-59
2023/09/18 11:43:25;;;;;;;3.90;2.08;;;25.70;99.90;;;;;;5071235;28;20174;-59
2023/09/18 11:45:52;;;;;;;3.15;1.83;;;25.80;99.90;;;;;;5070829;28;20221;-60
2023/09/18 11:48:18;;;;;;;4.25;1.92;;;25.90;99.90;;;;;;5070944;28;20578;-59
2023/09/18 11:50:45;;;;;;;8.50;1.98;;;;;;;;;;5071084;28;20695;-57
2023/09/18 11:53:15;;;;;;;4.00;1.75;;;26.00;99.90;;;;;;5071308;28;20241;-59
2023/09/18 11:55:40;;;;;;;5.80;1.88;;;;;;;;;;5071304;28;20169;-59
2023/09/18 11:58:09;;;;;;;3.35;1.80;;;25.40;99.90;;;;;;5070009;28;20245;-60
2023/09/18 12:00:35;;;;;;;7.03;2.00;;;25.30;99.90;;;;;;5070949;28;20199;-60
2023/09/18 12:03:27;;;;;;;4.15;1.80;;;25.00;99.90;;;;;;5070843;28;20178;-59
2023/09/18 12:05:58;;;;;;;1.75;1.60;;;24.90;99.90;;;;;;5070841;28;20690;-59
2023/09/18 12:08:30;;;;;;;2.92;1.50;;;24.80;99.90;;;;;;5070651;28;20658;-59
2023/09/18 12:10:57;;;;;;;4.50;1.70;;;25.10;99.90;;;;;;5070348;28;20165;-60
2023/09/18 12:13:31;;;;;;;3.05;1.70;;;25.00;99.90;;;;;;5070605;28;20197;-59
2023/09/18 12:16:05;;;;;;;3.15;2.10;;;24.90;99.90;;;;;;5070451;28;20279;-59
2023/09/18 12:18:36;;;;;;;5.70;1.67;;;24.80;99.90;;;;;;5072940;28;20157;-59
2023/09/18 12:21:05;;;;;;;3.55;1.58;;;24.80;99.90;;;;;;5074000;28;20176;-57
2023/09/18 12:23:43;;;;;;;4.85;1.80;;;24.80;99.90;;;;;;5074232;28;20173;-57
2023/09/18 12:26:15;;;;;;;4.95;1.98;;;25.30;99.90;;;;;;5074222;28;20545;-59
2023/09/18 12:28:44;;;;;;;3.72;1.90;;;25.40;99.90;;;;;;5074298;28;20247;-59
2023/09/18 12:31:16;;;;;;;4.28;2.08;;;25.40;99.90;;;;;;5074393;28;20641;-59
2023/09/18 12:33:43;;;;;;;9.63;1.90;;;25.60;99.90;;;;;;5072752;28;20227;-59
2023/09/18 12:36:10;;;;;;;2.15;1.90;;;25.60;99.90;;;;;;5074048;28;20796;-59
2023/09/18 12:38:39;;;;;;;3.05;1.70;;;25.70;99.90;;;;;;5073539;28;20201;-60
2023/09/18 12:41:06;;;;;;;2.38;1.70;;;25.80;99.90;;;;;;5073271;28;20165;-59
2023/09/18 12:43:42;;;;;;;6.72;2.00;;;25.90;99.90;;;;;;5073356;28;20162;-59
2023/09/18 12:46:09;;;;;;;2.65;1.73;;;26.10;99.90;;;;;;5073439;28;20235;-59
2023/09/18 12:48:41;;;;;;;4.13;1.77;;;25.60;99.90;;;;;;5073607;28;20627;-59
2023/09/18 12:51:07;;;;;;;3.30;1.98;;;25.50;99.90;;;;;;5072525;28;20181;-58